METAR Data
IDs: Format: Raw Decoded Include TAF

Data at: 2337 UTC 26 Feb 2020

METAR for:PAVC (King Cove Arpt, AK, US)
Text:PAVC 262256Z AUTO 00000KT 4SM -RA BR SCT009 BKN013 OVC025 02/01 A2958 RMK AO2 UPB45E49RAB49 SLP020 P0000 T00170006 FZRANO
Temperature: 1.7°C ( 35°F)
Dewpoint: 0.6°C ( 33°F) [RH = 92%]
Pressure (altimeter):29.58 inches Hg (1001.8 mb) [Sea level pressure: 1002.0 mb]
Winds:calm
Visibility: 4 sm ( 6 km)
Ceiling:1300 feet AGL
Clouds: scattered clouds at 900 feet AGL, broken clouds at 1300 feet AGL, overcast cloud deck at 2500 feet AGL
Weather:-RA BR (light rain, mist)
QC Flag:automated observation with no human augmentation
Text:PAVC 262254Z AUTO 00000KT 4SM -RA BR SCT009 BKN015 OVC022 02/01 A2958 RMK AO2 UPB45E49RAB49 P0000 FZRANO
Temperature: 2.0°C ( 36°F)
Dewpoint: 1.0°C ( 34°F) [RH = 93%]
Pressure (altimeter):29.58 inches Hg (1001.8 mb)
Winds:calm
Visibility: 4 sm ( 6 km)
Ceiling:1500 feet AGL
Clouds: scattered clouds at 900 feet AGL, broken clouds at 1500 feet AGL, overcast cloud deck at 2200 feet AGL
Weather:-RA BR (light rain, mist)
QC Flag:automated observation with no human augmentation
Text:PAVC 262226Z AUTO 00000KT 10SM SCT009 OVC014 02/M01 A2959 RMK AO2 FZRANO
Temperature: 2.0°C ( 36°F)
Dewpoint: -1.0°C ( 30°F) [RH = 80%]
Pressure (altimeter):29.59 inches Hg (1002.1 mb)
Winds:calm
Visibility:10 or more sm (16+ km)
Ceiling:1400 feet AGL
Clouds: scattered clouds at 900 feet AGL, overcast cloud deck at 1400 feet AGL
QC Flag:automated observation with no human augmentation
Text:PAVC 262156Z AUTO 00000KT 10SM OVC018 03/00 A2958 RMK AO2 SLP017 T00330000
Temperature: 3.3°C ( 38°F)
Dewpoint: 0.0°C ( 32°F) [RH = 79%]
Pressure (altimeter):29.58 inches Hg (1001.8 mb) [Sea level pressure: 1001.7 mb]
Winds:calm
Visibility:10 or more sm (16+ km)
Ceiling:1800 feet AGL
Clouds: overcast cloud deck at 1800 feet AGL
QC Flag:automated observation with no human augmentation
Text:PAVC 262130Z AUTO 00000KT 3SM BR SCT002 OVC020 01/00 A2957 RMK AO2 FZRANO
Temperature: 1.0°C ( 34°F)
Dewpoint: 0.0°C ( 32°F) [RH = 93%]
Pressure (altimeter):29.57 inches Hg (1001.4 mb)
Winds:calm
Visibility: 3 sm ( 5 km)
Ceiling:2000 feet AGL
Clouds: scattered clouds at 200 feet AGL, overcast cloud deck at 2000 feet AGL
Weather:BR (mist)
QC Flag:automated observation with no human augmentation
Text:PAVC 262127Z AUTO 00000KT 1 1/4SM BR BKN002 OVC020 01/00 A2957 RMK AO2 VIS 1/2V5 FZRANO
Temperature: 1.0°C ( 34°F)
Dewpoint: 0.0°C ( 32°F) [RH = 93%]
Pressure (altimeter):29.57 inches Hg (1001.4 mb)
Winds:calm
Visibility: 1.25 sm ( 2.01 km)
Ceiling:200 feet AGL
Clouds: broken clouds at 200 feet AGL, overcast cloud deck at 2000 feet AGL
Weather:BR (mist)
QC Flag:automated observation with no human augmentation
Text:PAVC 262056Z AUTO 23004KT 1/4SM FZFG OVC002 M01/M02 A2957 RMK AO2 SLP014 60000 T10111017 53017 FZRANO
Temperature: -1.1°C ( 30°F)
Dewpoint: -1.7°C ( 29°F) [RH = 96%]
Pressure (altimeter):29.57 inches Hg (1001.4 mb) [Sea level pressure: 1001.4 mb]
Winds:from the SW (230 degrees) at 5 MPH (4 knots; 2.1 m/s)
Visibility: 0.25 sm ( 0.40 km)
Ceiling:200 feet AGL
Clouds: overcast cloud deck at 200 feet AGL
Weather:FZFG (freezing fog)
QC Flag:automated observation with no human augmentation
Text:PAVC 261956Z AUTO 26010KT M1/4SM FZFG OVC002 M03/M03 A2955 RMK AO2 SNE12 SLP008 P0000 T10281033 FZRANO
Temperature: -2.8°C ( 27°F)
Dewpoint: -3.3°C ( 26°F) [RH = 96%]
Pressure (altimeter):29.55 inches Hg (1000.8 mb) [Sea level pressure: 1000.8 mb]
Winds:from the W (260 degrees) at 12 MPH (10 knots; 5.1 m/s)
Visibility: 0.25 sm ( 0.40 km)
Ceiling:200 feet AGL
Clouds: overcast cloud deck at 200 feet AGL
Weather:FZFG (freezing fog)
QC Flag:automated observation with no human augmentation
Text:PAVC 261856Z AUTO 26009KT M1/4SM -SN FZFG OVC002 M03/M03 A2953 RMK AO2 SNB07 SLP001 P0000 T10281033 FZRANO
Temperature: -2.8°C ( 27°F)
Dewpoint: -3.3°C ( 26°F) [RH = 96%]
Pressure (altimeter):29.53 inches Hg (1000.1 mb) [Sea level pressure: 1000.1 mb]
Winds:from the W (260 degrees) at 10 MPH (9 knots; 4.6 m/s)
Visibility: 0.25 sm ( 0.40 km)
Ceiling:200 feet AGL
Clouds: overcast cloud deck at 200 feet AGL
Weather:-SN FZFG (light snow, freezing fog)
QC Flag:automated observation with no human augmentation
Text:PAVC 261819Z AUTO 26009KT 1/4SM -SN FZFG OVC002 M03/M03 A2952 RMK AO2 SNB07 P0000 FZRANO
Temperature: -3.0°C ( 27°F)
Dewpoint: -3.0°C ( 27°F) [RH = 100%]
Pressure (altimeter):29.52 inches Hg ( 999.7 mb)
Winds:from the W (260 degrees) at 10 MPH (9 knots; 4.6 m/s)
Visibility: 0.25 sm ( 0.40 km)
Ceiling:200 feet AGL
Clouds: overcast cloud deck at 200 feet AGL
Weather:-SN FZFG (light snow, freezing fog)
QC Flag:automated observation with no human augmentation
Text:PAVC 261810Z AUTO 26008KT 3/4SM -SN BR OVC002 M03/M03 A2952 RMK AO2 VIS 1/2V1 3/4 SNB07 P0000 FZRANO
Temperature: -3.0°C ( 27°F)
Dewpoint: -3.0°C ( 27°F) [RH = 100%]
Pressure (altimeter):29.52 inches Hg ( 999.7 mb)
Winds:from the W (260 degrees) at 9 MPH (8 knots; 4.1 m/s)
Visibility: 0.75 sm ( 1.21 km)
Ceiling:200 feet AGL
Clouds: overcast cloud deck at 200 feet AGL
Weather:-SN BR (light snow, mist)
QC Flag:automated observation with no human augmentation
Text:PAVC 261804Z AUTO 25008KT 1 3/4SM BR OVC002 M03/M03 A2952 RMK AO2 VIS 3/4V5 FZRANO
Temperature: -3.0°C ( 27°F)
Dewpoint: -3.0°C ( 27°F) [RH = 100%]
Pressure (altimeter):29.52 inches Hg ( 999.7 mb)
Winds:from the WSW (250 degrees) at 9 MPH (8 knots; 4.1 m/s)
Visibility: 1.75 sm ( 2.82 km)
Ceiling:200 feet AGL
Clouds: overcast cloud deck at 200 feet AGL
Weather:BR (mist)
QC Flag:automated observation with no human augmentation
Text:PAVC 261756Z AUTO 25009KT 5SM BR OVC002 M03/M03 A2952 RMK AO2 SLP998 60000 T10331033 11011 21033 53005 FZRANO
Temperature: -3.3°C ( 26°F)
Dewpoint: -3.3°C ( 26°F) [RH = 100%]
Pressure (altimeter):29.52 inches Hg ( 999.7 mb) [Sea level pressure: 999.8 mb]
Winds:from the WSW (250 degrees) at 10 MPH (9 knots; 4.6 m/s)
Visibility: 5 sm ( 8 km)
Ceiling:200 feet AGL
Clouds: overcast cloud deck at 200 feet AGL
Weather:BR (mist)
QC Flag:automated observation with no human augmentation

TAF for:PAVC (King Cove Arpt, AK, US)
Text:No data found